createdAt,value
2019-02-22T00:01:35.382Z,1.20
2019-02-22T00:04:38.370Z,1.20
2019-02-22T00:07:41.405Z,1.30
2019-02-22T00:10:44.404Z,1.30
2019-02-22T00:13:50.224Z,1.30
2019-02-22T00:16:53.619Z,1.30
2019-02-22T00:19:56.345Z,1.30
2019-02-22T00:23:00.402Z,1.40
2019-02-22T00:26:03.203Z,1.40
2019-02-22T00:29:07.437Z,1.40
2019-02-22T00:32:10.140Z,1.50
2019-02-22T00:35:12.989Z,1.40
2019-02-22T00:38:15.679Z,1.40
2019-02-22T00:41:19.445Z,1.40
2019-02-22T00:44:23.249Z,1.50
2019-02-22T00:47:26.215Z,1.50
2019-02-22T00:50:29.086Z,1.50
2019-02-22T00:53:34.415Z,1.50
2019-02-22T00:56:39.058Z,1.50
2019-02-22T00:59:44.561Z,1.50
2019-02-22T01:02:50.812Z,1.50
2019-02-22T01:06:03.522Z,1.50
2019-02-22T01:09:06.598Z,1.40
2019-02-22T01:12:10.830Z,1.40
2019-02-22T01:15:13.604Z,1.40
2019-02-22T01:18:16.683Z,1.40
2019-02-22T01:21:19.774Z,1.40
2019-02-22T01:24:22.580Z,1.40
2019-02-22T01:27:25.390Z,1.40
2019-02-22T01:30:31.088Z,1.30
2019-02-22T01:33:33.893Z,1.30
2019-02-22T01:36:36.720Z,1.30
2019-02-22T01:39:39.449Z,1.30
2019-02-22T01:42:42.266Z,1.30
2019-02-22T01:45:46.006Z,1.30
2019-02-22T01:48:50.226Z,1.30
2019-02-22T01:51:52.909Z,1.30
2019-02-22T01:54:58.094Z,1.30
2019-02-22T01:58:00.912Z,1.30
2019-02-22T02:01:04.970Z,1.30
2019-02-22T02:04:09.719Z,1.30
2019-02-22T02:07:13.804Z,1.20
2019-02-22T02:10:18.432Z,1.20
2019-02-22T02:13:22.083Z,1.20
2019-02-22T02:16:24.942Z,1.20
2019-02-22T02:19:27.837Z,1.10
2019-02-22T02:22:30.714Z,1.10
2019-02-22T02:25:33.520Z,1.10
2019-02-22T02:28:37.567Z,1.00
2019-02-22T02:31:40.334Z,1.00
2019-02-22T02:34:44.227Z,1.00
2019-02-22T02:37:46.828Z,0.90
2019-02-22T02:40:49.504Z,0.90
2019-02-22T02:43:52.442Z,0.90
2019-02-22T02:46:55.292Z,0.80
2019-02-22T02:49:58.063Z,0.80
2019-02-22T02:53:01.844Z,0.70
2019-02-22T02:56:04.664Z,0.70
2019-02-22T02:59:07.409Z,0.60
2019-02-22T03:02:17.656Z,0.50
2019-02-22T03:05:22.902Z,0.40
2019-02-22T03:08:29.220Z,0.30
2019-02-22T03:11:31.847Z,0.20
2019-02-22T03:14:34.680Z,0.10
2019-02-22T03:17:37.364Z,0.00
2019-02-22T03:20:40.164Z,0.00
2019-02-22T03:23:42.900Z,-0.10
2019-02-22T03:26:45.646Z,-0.20
2019-02-22T03:29:48.461Z,-0.20
2019-02-22T03:32:52.382Z,-0.30
2019-02-22T03:36:01.222Z,-0.30
2019-02-22T03:39:05.695Z,-0.40
2019-02-22T03:42:10.219Z,-0.50
2019-02-22T03:45:12.991Z,-0.50
2019-02-22T03:48:15.806Z,-0.50
2019-02-22T03:51:18.493Z,-0.60
2019-02-22T03:54:21.203Z,-0.60
2019-02-22T03:57:23.927Z,-0.60
2019-02-22T04:00:26.603Z,-0.70
2019-02-22T04:04:01.021Z,-0.70
2019-02-22T04:08:21.422Z,-0.70
2019-02-22T04:11:45.117Z,-0.70
2019-02-22T04:14:43.533Z,-0.70
2019-02-22T04:18:08.152Z,-0.70
2019-02-22T04:21:11.177Z,-0.60
2019-02-22T04:24:13.829Z,-0.60
2019-02-22T04:27:16.715Z,-0.60
2019-02-22T04:30:19.502Z,-0.60
2019-02-22T04:33:22.340Z,-0.60
2019-02-22T04:36:25.177Z,-0.60
2019-02-22T04:39:28.000Z,-0.60
2019-02-22T04:42:30.751Z,-0.50
2019-02-22T04:45:33.862Z,-0.50
2019-02-22T04:48:39.434Z,-0.50
2019-02-22T04:51:42.191Z,-0.40
2019-02-22T04:54:47.943Z,-0.40
2019-02-22T04:57:50.705Z,-0.40
2019-02-22T05:00:53.500Z,-0.30
2019-02-22T05:03:56.356Z,-0.30
2019-02-22T05:06:59.088Z,-0.30
2019-02-22T05:10:02.151Z,-0.20
2019-02-22T05:13:05.111Z,-0.20
2019-02-22T05:16:07.993Z,-0.10
2019-02-22T05:19:10.705Z,-0.10
2019-02-22T05:22:13.403Z,-0.10
2019-02-22T05:25:16.237Z,-0.10
2019-02-22T05:28:19.105Z,-0.10
2019-02-22T05:31:22.033Z,-0.20
2019-02-22T05:34:25.090Z,-0.40
2019-02-22T05:37:27.744Z,-0.50
2019-02-22T05:40:30.515Z,-0.60
2019-02-22T05:43:33.248Z,-0.70
2019-02-22T05:46:36.249Z,-0.70
2019-02-22T05:49:39.046Z,-0.80
2019-02-22T05:52:41.797Z,-0.80
2019-02-22T05:55:44.659Z,-0.90
2019-02-22T05:58:47.732Z,-1.00
2019-02-22T06:01:50.619Z,-1.00
2019-02-22T06:04:53.492Z,-1.10
2019-02-22T06:07:56.331Z,-1.10
2019-02-22T06:10:59.264Z,-1.10
2019-02-22T06:14:02.311Z,-1.10
2019-02-22T06:17:14.167Z,-1.10
2019-02-22T06:20:09.897Z,-1.10
2019-02-22T06:23:12.806Z,-1.10
2019-02-22T06:26:15.562Z,-1.10
2019-02-22T06:29:18.291Z,-1.10
2019-02-22T06:32:21.300Z,-1.10
2019-02-22T06:35:24.044Z,-1.10
2019-02-22T06:38:26.986Z,-1.00
2019-02-22T06:41:30.029Z,-1.00
2019-02-22T06:44:32.905Z,-1.00
2019-02-22T06:47:35.894Z,-0.90
2019-02-22T06:50:38.860Z,-0.90
2019-02-22T06:53:41.897Z,-0.80
2019-02-22T06:56:44.866Z,-0.80
2019-02-22T06:59:49.783Z,-0.80
2019-02-22T07:02:52.617Z,-0.70
2019-02-22T07:05:55.844Z,-0.70
2019-02-22T07:08:58.891Z,-0.70
2019-02-22T07:12:10.023Z,-0.60
2019-02-22T07:15:13.103Z,-0.60
2019-02-22T07:18:15.934Z,-0.60
2019-02-22T07:21:18.929Z,-0.50
2019-02-22T07:24:21.798Z,-0.50
2019-02-22T07:27:24.994Z,-0.40
2019-02-22T07:30:27.819Z,-0.30
2019-02-22T07:33:30.759Z,-0.30
2019-02-22T07:36:33.554Z,-0.30
2019-02-22T07:39:36.293Z,-0.20
2019-02-22T07:42:39.195Z,-0.20
2019-02-22T07:45:42.013Z,-0.20
2019-02-22T07:48:45.017Z,-0.10
2019-02-22T07:51:47.903Z,0.00
2019-02-22T07:54:50.759Z,0.00
2019-02-22T07:57:53.689Z,0.10
2019-02-22T08:00:56.594Z,0.10
2019-02-22T08:03:59.374Z,0.10
2019-02-22T08:07:02.332Z,0.10
2019-02-22T08:10:05.238Z,0.20
2019-02-22T08:13:19.182Z,0.30
2019-02-22T08:16:13.728Z,0.30
2019-02-22T08:19:16.541Z,0.40
2019-02-22T08:22:20.730Z,0.60
2019-02-22T08:25:23.872Z,0.70
2019-02-22T08:28:26.691Z,0.80
2019-02-22T08:31:29.641Z,0.90
2019-02-22T08:34:32.521Z,1.00
2019-02-22T08:37:35.441Z,1.10
2019-02-22T08:40:38.196Z,1.30
2019-02-22T08:43:41.251Z,1.40
2019-02-22T08:46:45.118Z,1.40
2019-02-22T08:49:48.103Z,1.50
2019-02-22T08:52:50.930Z,1.60
2019-02-22T08:55:53.968Z,1.70
2019-02-22T08:58:57.977Z,1.70
2019-02-22T09:02:00.793Z,1.80
2019-02-22T09:05:04.109Z,1.70
2019-02-22T09:08:07.271Z,1.80
2019-02-22T09:11:10.020Z,1.80
2019-02-22T09:14:13.418Z,2.00
2019-02-22T09:17:16.132Z,2.20
2019-02-22T09:20:18.977Z,2.40
2019-02-22T09:23:21.768Z,2.50
2019-02-22T09:26:24.720Z,2.60
2019-02-22T09:29:27.569Z,2.50
2019-02-22T09:32:30.486Z,2.40
2019-02-22T09:35:35.245Z,2.30
2019-02-22T09:38:38.256Z,2.30
2019-02-22T09:41:40.988Z,2.40
2019-02-22T09:44:43.959Z,2.30
2019-02-22T09:47:46.741Z,2.40
2019-02-22T09:50:49.660Z,2.50
2019-02-22T09:53:52.644Z,2.50
2019-02-22T09:56:55.622Z,2.60
2019-02-22T09:59:58.534Z,2.60
2019-02-22T10:03:01.316Z,2.50
2019-02-22T10:06:04.339Z,2.60
2019-02-22T10:09:07.475Z,2.60
2019-02-22T10:12:11.229Z,2.60
2019-02-22T10:15:13.990Z,2.60
2019-02-22T10:18:16.760Z,2.60
2019-02-22T10:21:19.867Z,2.60
2019-02-22T10:24:22.594Z,2.50
2019-02-22T10:27:25.541Z,2.50
2019-02-22T10:30:28.314Z,2.50
2019-02-22T10:33:36.814Z,2.30
2019-02-22T10:36:44.776Z,2.20
2019-02-22T10:39:40.552Z,2.20
2019-02-22T10:42:43.459Z,2.30
2019-02-22T10:45:46.329Z,2.40
2019-02-22T10:48:49.341Z,2.60
2019-02-22T10:51:52.256Z,2.80
2019-02-22T10:54:55.095Z,2.90
2019-02-22T10:57:58.086Z,3.00
2019-02-22T11:01:00.892Z,3.00
2019-02-22T11:04:03.912Z,3.00
2019-02-22T11:07:06.693Z,3.00
2019-02-22T11:10:10.027Z,3.10
2019-02-22T11:13:13.043Z,3.00
2019-02-22T11:16:15.837Z,3.10
2019-02-22T11:19:18.730Z,3.20
2019-02-22T11:22:21.613Z,3.20
2019-02-22T11:25:24.401Z,3.20
2019-02-22T11:28:28.491Z,3.20
2019-02-22T11:31:31.213Z,3.40
2019-02-22T11:34:34.097Z,3.50
2019-02-22T11:37:36.977Z,3.60
2019-02-22T11:40:40.323Z,3.70
2019-02-22T11:43:43.113Z,3.70
2019-02-22T11:46:51.589Z,3.70
2019-02-22T11:49:54.475Z,3.80
2019-02-22T11:52:57.460Z,3.90
2019-02-22T11:56:00.369Z,4.10
2019-02-22T11:59:03.326Z,4.30
2019-02-22T12:02:06.233Z,4.40
2019-02-22T12:05:09.458Z,4.70
2019-02-22T12:08:12.262Z,5.10
2019-02-22T12:11:15.019Z,5.50
2019-02-22T12:14:20.093Z,5.80
2019-02-22T12:17:23.016Z,5.60
2019-02-22T12:20:25.748Z,5.40
2019-02-22T12:23:28.698Z,5.20
2019-02-22T12:26:32.019Z,5.00
2019-02-22T12:29:36.239Z,4.70
2019-02-22T12:32:39.679Z,4.50
2019-02-22T12:35:42.618Z,4.30
2019-02-22T12:38:45.614Z,4.10
2019-02-22T12:41:48.389Z,4.00
2019-02-22T12:45:02.291Z,3.90
2019-02-22T12:47:55.836Z,3.80
2019-02-22T12:50:58.686Z,3.90
2019-02-22T12:54:01.496Z,4.20
2019-02-22T12:57:04.536Z,4.40
2019-02-22T13:00:11.374Z,4.70
2019-02-22T13:03:14.372Z,4.90
2019-02-22T13:06:17.225Z,5.40
2019-02-22T13:09:20.038Z,5.60
2019-02-22T13:12:22.874Z,5.60
2019-02-22T13:15:27.951Z,5.50
2019-02-22T13:18:30.785Z,5.40
2019-02-22T13:21:33.609Z,5.00
2019-02-22T13:24:36.499Z,4.90
2019-02-22T13:27:39.340Z,4.70
2019-02-22T13:30:42.163Z,4.70
2019-02-22T13:33:45.114Z,4.70
2019-02-22T13:36:47.962Z,4.50
2019-02-22T13:39:50.773Z,4.40
2019-02-22T13:42:53.600Z,4.30
2019-02-22T13:45:58.334Z,4.30
2019-02-22T13:49:00.956Z,4.40
2019-02-22T13:52:04.554Z,4.60
2019-02-22T13:55:07.622Z,4.80
2019-02-22T13:58:11.703Z,5.50
2019-02-22T14:01:15.634Z,6.30
2019-02-22T14:04:18.543Z,6.20
2019-02-22T14:07:21.388Z,5.50
2019-02-22T14:10:24.486Z,4.90
2019-02-22T14:13:27.557Z,4.50
2019-02-22T14:16:30.323Z,4.30
2019-02-22T14:19:33.287Z,4.10
2019-02-22T14:22:36.148Z,3.90
2019-02-22T14:25:38.920Z,3.60
2019-02-22T14:28:41.654Z,3.40
2019-02-22T14:31:44.614Z,3.10
2019-02-22T14:34:47.525Z,3.00
2019-02-22T14:37:50.286Z,2.80
2019-02-22T14:40:53.118Z,2.70
2019-02-22T14:43:55.945Z,2.60
2019-02-22T14:46:58.828Z,2.50
2019-02-22T14:50:01.593Z,2.40
2019-02-22T14:53:05.707Z,2.50
2019-02-22T14:56:08.461Z,2.40
2019-02-22T14:59:11.448Z,2.40
2019-02-22T15:02:14.147Z,2.50
2019-02-22T15:05:16.875Z,2.50
2019-02-22T15:08:19.843Z,2.60
2019-02-22T15:11:22.592Z,2.50
2019-02-22T15:14:25.434Z,2.40
2019-02-22T15:17:36.529Z,2.30
2019-02-22T15:20:39.427Z,2.20
2019-02-22T15:23:42.147Z,2.20
2019-02-22T15:26:45.291Z,2.20
2019-02-22T15:29:48.359Z,2.20
2019-02-22T15:32:51.267Z,2.10
2019-02-22T15:35:54.135Z,2.10
2019-02-22T15:38:57.084Z,2.10
2019-02-22T15:41:59.790Z,2.10
2019-02-22T15:45:02.892Z,2.10
2019-02-22T15:48:07.589Z,2.20
2019-02-22T15:51:12.651Z,2.20
2019-02-22T15:54:15.662Z,2.10
2019-02-22T15:57:18.635Z,2.00
2019-02-22T16:00:30.214Z,2.10
2019-02-22T16:03:51.065Z,2.10
2019-02-22T16:06:53.999Z,2.20
2019-02-22T16:09:56.946Z,2.30
2019-02-22T16:12:59.815Z,2.40
2019-02-22T16:16:02.991Z,2.30
2019-02-22T16:19:05.861Z,2.20
2019-02-22T16:22:08.776Z,2.10
2019-02-22T16:25:19.634Z,2.00
2019-02-22T16:28:16.419Z,1.90
2019-02-22T16:31:19.304Z,1.80
2019-02-22T16:34:22.145Z,1.70
2019-02-22T16:37:25.711Z,1.70
2019-02-22T16:41:08.909Z,1.60
2019-02-22T16:44:26.109Z,1.60
2019-02-22T16:47:53.177Z,1.50
2019-02-22T16:50:57.914Z,1.50
2019-02-22T16:54:04.511Z,1.50
2019-02-22T16:57:10.779Z,1.50
2019-02-22T17:00:18.305Z,1.40
2019-02-22T17:03:25.572Z,1.50
2019-02-22T17:06:29.943Z,1.50
2019-02-22T17:10:14.125Z,1.50
2019-02-22T17:13:19.000Z,1.50
2019-02-22T17:16:21.754Z,1.50
2019-02-22T17:19:29.110Z,1.50
2019-02-22T17:22:33.090Z,1.50
2019-02-22T17:25:35.860Z,1.50
2019-02-22T17:28:42.510Z,1.50
2019-02-22T17:31:47.626Z,1.50
2019-02-22T17:34:51.408Z,1.40
2019-02-22T18:08:32.460Z,1.40
2019-02-22T18:11:36.444Z,1.40
2019-02-22T18:14:39.157Z,1.40
2019-02-22T18:17:42.520Z,1.50
2019-02-22T18:20:45.317Z,1.60
2019-02-22T18:23:48.095Z,1.70
2019-02-22T18:26:50.988Z,1.70
2019-02-22T18:29:53.998Z,1.80
2019-02-22T18:32:57.004Z,1.90
2019-02-22T18:36:00.091Z,1.90
2019-02-22T18:39:04.704Z,2.00
2019-02-22T18:42:08.202Z,2.00
2019-02-22T18:45:14.792Z,2.00
2019-02-22T18:48:17.642Z,2.10
2019-02-22T18:51:20.595Z,2.10
2019-02-22T18:54:23.467Z,2.10
2019-02-22T18:57:26.335Z,2.10
2019-02-22T19:00:29.230Z,2.10
2019-02-22T19:03:32.312Z,2.10
2019-02-22T19:06:35.143Z,2.10
2019-02-22T19:09:38.948Z,2.10
2019-02-22T19:12:41.736Z,2.20
2019-02-22T19:15:44.682Z,2.20
2019-02-22T19:18:47.400Z,2.20
2019-02-22T19:21:53.399Z,2.20
2019-02-22T19:24:56.261Z,2.20
2019-02-22T19:27:59.084Z,2.30
2019-02-22T19:31:01.997Z,2.30
2019-02-22T19:34:04.706Z,2.30
2019-02-22T19:37:09.044Z,2.30
2019-02-22T19:40:14.310Z,2.30
2019-02-22T19:43:17.197Z,2.40
2019-02-22T19:46:19.952Z,2.40
2019-02-22T19:49:22.813Z,2.40
2019-02-22T19:52:27.464Z,2.40
2019-02-22T19:55:30.539Z,2.40
2019-02-22T19:58:33.424Z,2.40
2019-02-22T20:01:36.240Z,2.40
2019-02-22T20:04:38.991Z,2.40
2019-02-22T20:07:41.877Z,2.50
2019-02-22T20:10:44.625Z,2.50
2019-02-22T20:13:47.559Z,2.50
2019-02-22T20:16:50.288Z,2.60
2019-02-22T20:19:53.235Z,2.60
2019-02-22T20:22:56.116Z,2.60
2019-02-22T20:25:58.966Z,2.60
2019-02-22T20:29:01.632Z,2.60
2019-02-22T20:32:04.675Z,2.60
2019-02-22T20:35:09.583Z,2.60
2019-02-22T20:38:12.618Z,2.60
2019-02-22T20:41:15.837Z,2.60
2019-02-22T20:44:19.210Z,2.60
2019-02-22T20:47:30.996Z,2.60
2019-02-22T20:54:38.022Z,2.60
2019-02-22T21:09:50.874Z,2.60
2019-02-22T21:16:24.816Z,2.60
2019-02-22T21:19:53.539Z,2.60
2019-02-22T21:22:59.091Z,2.60
2019-02-22T21:26:02.809Z,2.60
2019-02-22T21:29:05.727Z,2.60
2019-02-22T21:32:21.320Z,2.60
2019-02-22T21:35:24.272Z,2.60
2019-02-22T21:38:27.449Z,2.70
2019-02-22T21:41:30.398Z,2.70
2019-02-22T21:44:33.370Z,2.70
2019-02-22T21:47:36.526Z,2.70
2019-02-22T21:50:40.031Z,2.70
2019-02-22T21:53:42.885Z,2.70
2019-02-22T21:56:45.804Z,2.70
2019-02-22T21:59:48.627Z,2.60
2019-02-22T22:03:29.729Z,2.70
2019-02-22T22:06:49.823Z,2.70
2019-02-22T22:10:11.146Z,2.70
2019-02-22T22:13:32.766Z,2.60
2019-02-22T22:17:16.636Z,2.60
2019-02-22T22:24:12.213Z,2.70
2019-02-22T22:27:40.775Z,2.70
2019-02-22T22:30:44.407Z,2.60
2019-02-22T22:33:47.644Z,2.60
2019-02-22T22:36:50.377Z,2.50
2019-02-22T22:39:53.508Z,2.60
2019-02-22T22:42:59.828Z,2.60
2019-02-22T22:46:05.391Z,2.60
2019-02-22T22:49:22.338Z,2.60
2019-02-22T22:52:27.088Z,2.50
2019-02-22T22:55:29.898Z,2.50
2019-02-22T22:58:41.454Z,2.50
2019-02-22T23:01:44.999Z,2.50
2019-02-22T23:04:47.763Z,2.50
2019-02-22T23:07:50.738Z,2.50
2019-02-22T23:10:53.545Z,2.50
2019-02-22T23:14:01.680Z,2.50
2019-02-22T23:17:05.817Z,2.50
2019-02-22T23:20:08.849Z,2.50
2019-02-22T23:23:11.735Z,2.40
2019-02-22T23:26:14.606Z,2.50
2019-02-22T23:29:17.407Z,2.40
2019-02-22T23:32:20.223Z,2.40
2019-02-22T23:35:22.960Z,2.40
2019-02-22T23:38:25.910Z,2.40
2019-02-22T23:41:28.709Z,2.50
2019-02-22T23:44:31.477Z,2.50
2019-02-22T23:47:34.283Z,2.50
2019-02-22T23:50:37.005Z,2.50
2019-02-22T23:53:39.796Z,2.50
2019-02-22T23:56:42.524Z,2.50
2019-02-22T23:59:45.314Z,2.60
